TAF and METAR

Decoding for American and Canadian METARs and TAFs is not fully implemented.

Could not understand the following METAR

KGDJ 290235Z AUTO 00000KT 10SM CLR 25/18 A3002 RMK AO2 T02510175
No TAF available for Granbury Municipal Airport